Terminal Aerodrome Forecast
Issued by NWS Blacksburg, VA

Current Version | Previous Version | Graphics & Text | Print | Product List | Glossary On
Versions: 1 2 3 4 5 6 7 8 9 10 11 12 13 14 15 16 17 18 19 20 21 22 23 24 25 26 27 28 29 30 31 32 33 34 35 36 37 38 39 40 41 42 43 44 45 46 47 48
000
FTUS41 KRNK 030107 AAA
TAFBLF
TAF AMD
KBLF 030107Z 0301/0324 10004KT 3SM BR BKN002 BKN007
      TEMPO 0301/0304 1SM BR
     FM030600 26003KT 6SM -SHRA OVC010
     FM031000 VRB03KT 2SM BR OVC008
     FM031500 22003KT 6SM BR SCT008 OVC015
     FM031800 24007KT 6SM -SHRA OVC025
     FM032100 25009KT 6SM -SHRA VCTS BKN025CB=

USA.gov is the U.S. government's official web portal to all federal, state and local government web resources and services.